Time;durP1;ratioP1;P1;durP2;ratioP2;P2;SDS_P1;SDS_P2;PMS_P1;PMS_P2;Temp;Humidity;BMP_temperature;BMP_pressure;BME280_temperature;BME280_humidity;BME280_pressure;Samples;Min_cycle;Max_cycle;Signal;HPM_P1;HPM_P2
2023/09/22 00:00:49;;;;;;;;;;;;;;;18.16;70.78;96716.75;5024758;28;20405;-61
2023/09/22 00:03:17;;;;;;;;;;;;;;;18.16;70.81;96727.72;5024965;28;20371;-61
2023/09/22 00:05:45;;;;;;;;;;;;;;;18.12;70.29;96726.19;5021707;28;20480;-61
2023/09/22 00:08:13;;;;;;;;;;;;;;;18.05;70.18;96738.69;5026809;28;19929;-61
2023/09/22 00:10:40;;;;;;;;;;;;;;;18.03;70.25;96718.28;5029183;28;20479;-61
2023/09/22 00:13:08;;;;;;;;;;;;;;;18.04;70.70;96739.88;5017969;28;19929;-61
2023/09/22 00:15:36;;;;;;;;;;;;;;;17.99;70.02;96744.97;5017312;28;20328;-61
2023/09/22 00:18:08;;;;;;;;;;;;;;;17.90;69.12;96745.34;5021409;28;20362;-60
2023/09/22 00:20:35;;;;;;;;;;;;;;;17.89;69.14;96751.22;5009876;28;20023;-61
2023/09/22 00:23:03;;;;;;;;;;;;;;;17.88;69.93;96760.63;5027996;28;19929;-61
2023/09/22 00:25:31;;;;;;;;;;;;;;;17.83;70.18;96744.53;5023689;28;19996;-61
2023/09/22 00:27:59;;;;;;;;;;;;;;;17.87;70.43;96742.59;5022535;28;19929;-61
2023/09/22 00:30:28;;;;;;;;;;;;;;;17.83;70.11;96730.78;5024379;28;19987;-61
2023/09/22 00:32:57;;;;;;;;;;;;;;;17.85;70.32;96731.22;5020407;28;19926;-61
2023/09/22 00:35:26;;;;;;;;;;;;;;;17.82;70.03;96730.00;5027991;28;19928;-60
2023/09/22 00:37:54;;;;;;;;;;;;;;;17.72;69.83;96728.78;5003782;28;19926;-61
2023/09/22 00:40:21;;;;;;;;;;;;;;;17.75;70.15;96733.53;5009941;28;19933;-61
2023/09/22 00:43:04;;;;;;;;;;;;;;;17.76;70.50;96737.06;5028375;28;19979;-61
2023/09/22 00:45:32;;;;;;;;;;;;;;;17.71;70.00;96751.13;5021325;28;19983;-61
2023/09/22 00:48:00;;;;;;;;;;;;;;;17.70;70.36;96755.84;5027798;28;19933;-61
2023/09/22 00:50:32;;;;;;;;;;;;;;;17.66;70.12;96760.53;5034773;28;19944;-61
2023/09/22 00:53:00;;;;;;;;;;;;;;;17.65;70.21;96747.97;5014099;28;19948;-61
2023/09/22 00:55:28;;;;;;;;;;;;;;;17.56;70.82;96742.03;5015708;28;19929;-60
2023/09/22 00:57:56;;;;;;;;;;;;;;;17.52;70.82;96749.47;5021669;28;19932;-61
2023/09/22 01:00:24;;;;;;;;;;;;;;;17.48;72.18;96752.22;5023982;28;19932;-61
2023/09/22 01:02:52;;;;;;;;;;;;;;;17.42;72.21;96759.25;5013008;28;19932;-61
2023/09/22 01:05:20;;;;;;;;;;;;;;;17.42;72.14;96744.72;5024763;28;19925;-61
2023/09/22 01:07:49;;;;;;;;;;;;;;;17.40;72.82;96755.28;5026908;28;20550;-61
2023/09/22 01:10:20;;;;;;;;;;;;;;;17.36;73.10;96754.47;5027688;28;19929;-61
2023/09/22 01:12:49;;;;;;;;;;;;;;;17.30;73.25;96762.28;5027396;28;19929;-61
2023/09/22 01:15:17;;;;;;;;;;;;;;;17.26;73.45;96758.75;5008682;28;19929;-61
2023/09/22 01:17:47;;;;;;;;;;;;;;;17.19;73.22;96758.69;5010819;28;19928;-60
2023/09/22 01:20:15;;;;;;;;;;;;;;;17.22;74.11;96749.69;5009300;28;19948;-61
2023/09/22 01:22:44;;;;;;;;;;;;;;;17.13;73.63;96744.53;5028612;28;19935;-60
2023/09/22 01:25:12;;;;;;;;;;;;;;;17.11;73.70;96733.16;5021918;28;19940;-61
2023/09/22 01:27:40;;;;;;;;;;;;;;;17.08;73.83;96724.91;5027070;28;20260;-61
2023/09/22 01:30:11;;;;;;;;;;;;;;;17.11;74.21;96708.47;5008651;28;20716;-61
2023/09/22 01:32:39;;;;;;;;;;;;;;;17.20;74.29;96713.59;5027446;28;19925;-61
2023/09/22 01:35:07;;;;;;;;;;;;;;;17.14;75.11;96724.16;5028025;28;19936;-60
2023/09/22 01:37:35;;;;;;;;;;;;;;;17.19;75.19;96726.53;5025775;28;19949;-61
2023/09/22 01:40:05;;;;;;;;;;;;;;;17.23;75.48;96726.56;5027623;28;19931;-61
2023/09/22 01:42:33;;;;;;;;;;;;;;;17.17;75.42;96726.16;5027459;28;19925;-61
2023/09/22 01:45:02;;;;;;;;;;;;;;;17.08;75.08;96736.66;5027084;28;19935;-61
2023/09/22 01:47:30;;;;;;;;;;;;;;;17.12;75.90;96751.19;5009263;28;19956;-61
2023/09/22 01:49:57;;;;;;;;;;;;;;;17.14;75.43;96743.38;5028280;28;20041;-61
2023/09/22 01:52:25;;;;;;;;;;;;;;;17.11;75.38;96751.59;5016496;28;19933;-61
2023/09/22 01:54:53;;;;;;;;;;;;;;;17.11;75.90;96754.34;5020112;28;19932;-61
2023/09/22 01:57:22;;;;;;;;;;;;;;;17.15;75.80;96761.44;5024461;28;19933;-61
2023/09/22 01:59:50;;;;;;;;;;;;;;;17.20;76.54;96754.75;5006154;28;19955;-61
2023/09/22 02:02:43;;;;;;;;;;;;;;;17.11;75.26;96752.38;5019202;28;19935;-61
2023/09/22 02:05:11;;;;;;;;;;;;;;;17.06;75.12;96766.44;5000966;28;19986;-61
2023/09/22 02:07:39;;;;;;;;;;;;;;;17.03;75.31;96761.72;5007911;28;20020;-61
2023/09/22 02:10:09;;;;;;;;;;;;;;;17.05;75.48;96759.41;5004398;28;19925;-61
2023/09/22 02:12:38;;;;;;;;;;;;;;;16.98;76.25;96745.59;5027074;28;19925;-61
2023/09/22 02:15:08;;;;;;;;;;;;;;;17.02;75.45;96755.44;5007785;28;19925;-61
2023/09/22 02:17:36;;;;;;;;;;;;;;;17.02;75.93;96771.13;5008835;28;19929;-61
2023/09/22 02:20:18;;;;;;;;;;;;;;;16.95;75.66;96773.81;5024136;28;21264;-61
2023/09/22 02:22:47;;;;;;;;;;;;;;;16.92;76.02;96774.56;5032008;28;20004;-62
2023/09/22 02:25:16;;;;;;;;;;;;;;;16.85;75.80;96766.28;5012188;28;20429;-61
2023/09/22 02:27:47;;;;;;;;;;;;;;;16.81;75.75;96752.53;5032866;28;19933;-61
2023/09/22 02:30:15;;;;;;;;;;;;;;;16.83;76.24;96755.72;5028962;28;19929;-61
2023/09/22 02:32:43;;;;;;;;;;;;;;;16.87;76.41;96747.50;5034482;28;20767;-61
2023/09/22 02:35:12;;;;;;;;;;;;;;;16.84;76.64;96748.28;5033297;28;19979;-61
2023/09/22 02:37:41;;;;;;;;;;;;;;;16.83;76.84;96752.97;5015611;28;20367;-61
2023/09/22 02:40:10;;;;;;;;;;;;;;;16.81;76.93;96760.00;5013137;28;19925;-61
2023/09/22 02:42:40;;;;;;;;;;;;;;;16.75;76.90;96757.59;5031695;28;19933;-61
2023/09/22 02:45:10;;;;;;;;;;;;;;;16.75;77.17;96749.38;5032514;28;19929;-61
2023/09/22 02:47:38;;;;;;;;;;;;;;;16.74;77.34;96764.25;5032980;28;19933;-60
2023/09/22 02:50:09;;;;;;;;;;;;;;;16.70;76.69;96757.91;5014387;28;19936;-61
2023/09/22 02:52:38;;;;;;;;;;;;;;;16.67;76.85;96774.31;5015236;28;19948;-61
2023/09/22 02:55:07;;;;;;;;;;;;;;;16.68;77.27;96779.47;5032584;28;19936;-61
2023/09/22 02:57:36;;;;;;;;;;;;;;;16.63;77.03;96771.56;5030461;28;19925;-61
2023/09/22 03:00:11;;;;;;;;;;;;;;;16.62;77.20;96774.69;5029187;28;19929;-62
2023/09/22 03:02:40;;;;;;;;;;;;;;;16.63;77.33;96770.78;5031310;28;19936;-61
2023/09/22 03:05:08;;;;;;;;;;;;;;;16.68;77.37;96773.19;5026594;28;20699;-61
2023/09/22 03:07:37;;;;;;;;;;;;;;;16.74;77.29;96785.41;5015121;28;19937;-62
2023/09/22 03:10:06;;;;;;;;;;;;;;;16.72;77.31;96784.97;5013925;28;19926;-61
2023/09/22 03:12:34;;;;;;;;;;;;;;;16.74;77.00;96777.19;5032301;28;19933;-61
2023/09/22 03:15:03;;;;;;;;;;;;;;;16.66;76.98;96784.50;5013462;28;19925;-61
2023/09/22 03:17:32;;;;;;;;;;;;;;;16.63;76.82;96771.56;5012699;28;20429;-61
2023/09/22 03:20:01;;;;;;;;;;;;;;;16.62;76.80;96764.53;5021594;28;19926;-61
2023/09/22 03:22:28;;;;;;;;;;;;;;;16.68;77.20;96773.19;5033041;28;19935;-61
2023/09/22 03:24:56;;;;;;;;;;;;;;;16.75;77.56;96778.75;5026223;28;20290;-61
2023/09/22 03:27:24;;;;;;;;;;;;;;;16.78;77.45;96750.56;5026551;28;19935;-61
2023/09/22 03:29:52;;;;;;;;;;;;;;;16.81;77.49;96754.50;5008428;28;19925;-63
2023/09/22 03:32:21;;;;;;;;;;;;;;;16.85;77.60;96753.38;5027872;28;19936;-61
2023/09/22 03:34:48;;;;;;;;;;;;;;;16.88;76.77;96749.06;5011671;28;19956;-60
2023/09/22 03:37:18;;;;;;;;;;;;;;;16.89;76.97;96740.47;5012394;28;19925;-60
2023/09/22 03:39:47;;;;;;;;;;;;;;;16.89;77.14;96723.22;5011249;28;19988;-61
2023/09/22 03:42:15;;;;;;;;;;;;;;;16.88;77.21;96713.41;5024945;28;19932;-61
2023/09/22 03:44:43;;;;;;;;;;;;;;;16.90;76.77;96716.56;5026835;28;19929;-61
2023/09/22 03:47:11;;;;;;;;;;;;;;;16.82;76.78;96734.91;5022156;28;20664;-61
2023/09/22 03:49:39;;;;;;;;;;;;;;;16.80;76.47;96725.50;5011029;28;19939;-61
2023/09/22 03:52:06;;;;;;;;;;;;;;;16.80;77.05;96741.97;5025976;28;19925;-60
2023/09/22 03:54:37;;;;;;;;;;;;;;;16.75;76.62;96746.63;5026951;28;19936;-60
2023/09/22 03:57:06;;;;;;;;;;;;;;;16.78;76.90;96745.09;5026158;28;19982;-61
2023/09/22 03:59:34;;;;;;;;;;;;;;;16.72;76.29;96739.16;5020747;28;20386;-60
2023/09/22 04:02:05;;;;;;;;;;;;;;;16.63;76.08;96735.94;5023599;28;20331;-61
2023/09/22 04:04:33;;;;;;;;;;;;;;;16.64;76.26;96728.47;5008860;28;20393;-61
2023/09/22 04:07:01;;;;;;;;;;;;;;;16.66;76.09;96731.63;5029136;28;19925;-61
2023/09/22 04:09:31;;;;;;;;;;;;;;;16.65;76.04;96744.56;5009957;28;19929;-61
2023/09/22 04:12:01;;;;;;;;;;;;;;;16.69;76.46;96739.88;5027671;28;20354;-60
2023/09/22 04:14:28;;;;;;;;;;;;;;;16.70;76.27;96749.69;5006781;28;19929;-60
2023/09/22 04:16:56;;;;;;;;;;;;;;;16.73;76.51;96748.97;5022897;28;20006;-61
2023/09/22 04:19:24;;;;;;;;;;;;;;;16.70;75.54;96749.69;5021273;28;20470;-61
2023/09/22 04:21:54;;;;;;;;;;;;;;;16.72;76.03;96750.16;5028735;28;19933;-61
2023/09/22 04:24:22;;;;;;;;;;;;;;;16.73;76.27;96754.47;5029182;28;19929;-60
2023/09/22 04:26:52;;;;;;;;;;;;;;;16.71;75.81;96765.00;5028663;28;19925;-61
2023/09/22 04:29:21;;;;;;;;;;;;;;;16.66;75.66;96759.84;5028249;28;19933;-61
2023/09/22 04:31:49;;;;;;;;;;;;;;;16.76;75.77;96770.13;5024835;28;19930;-60
2023/09/22 04:34:18;;;;;;;;;;;;;;;16.75;75.77;96768.56;5022827;28;19933;-61
2023/09/22 04:36:46;;;;;;;;;;;;;;;16.69;75.09;96774.75;5028839;28;19932;-61
2023/09/22 04:39:14;;;;;;;;;;;;;;;16.69;75.80;96793.94;5028755;28;19971;-61
2023/09/22 04:41:43;;;;;;;;;;;;;;;16.69;76.15;96816.69;5028748;28;19967;-61
2023/09/22 04:44:10;;;;;;;;;;;;;;;16.70;75.95;96817.47;5027618;28;20334;-61
2023/09/22 04:46:39;;;;;;;;;;;;;;;16.68;75.51;96828.81;5028343;28;19925;-60
2023/09/22 04:49:11;;;;;;;;;;;;;;;16.67;75.94;96827.25;5026858;28;20318;-61
2023/09/22 04:51:39;;;;;;;;;;;;;;;16.66;75.83;96835.84;5022146;28;20308;-61
2023/09/22 04:54:06;;;;;;;;;;;;;;;16.64;76.21;96836.22;5019585;28;19932;-60
2023/09/22 04:56:34;;;;;;;;;;;;;;;16.62;76.51;96830.34;5028297;28;19933;-61
2023/09/22 04:59:03;;;;;;;;;;;;;;;16.61;76.91;96828.72;5025809;28;20414;-61
2023/09/22 05:01:31;;;;;;;;;;;;;;;16.56;76.79;96831.81;5025655;28;19936;-61
2023/09/22 05:04:00;;;;;;;;;;;;;;;16.60;77.12;96860.06;5027462;28;20022;-61
2023/09/22 05:06:28;;;;;;;;;;;;;;;16.59;77.09;96844.78;5028383;28;19933;-61
2023/09/22 05:08:57;;;;;;;;;;;;;;;16.59;77.40;96850.25;5026775;28;19941;-60
2023/09/22 05:11:25;;;;;;;;;;;;;;;16.61;77.84;96845.19;5026340;28;19963;-61
2023/09/22 05:13:53;;;;;;;;;;;;;;;16.63;77.54;96853.06;5025792;28;19929;-61
2023/09/22 05:16:21;;;;;;;;;;;;;;;16.65;77.76;96851.50;5027903;28;19991;-61
2023/09/22 05:18:50;;;;;;;;;;;;;;;16.66;77.66;96836.63;5025756;28;20020;-61
2023/09/22 05:21:19;;;;;;;;;;;;;;;16.64;77.56;96832.69;5023781;28;19925;-61
2023/09/22 05:23:47;;;;;;;;;;;;;;;16.65;77.65;96823.28;5027038;28;20006;-60
2023/09/22 05:26:14;;;;;;;;;;;;;;;16.62;77.20;96830.34;5027349;28;20018;-61
2023/09/22 05:28:42;;;;;;;;;;;;;;;16.65;77.16;96826.81;5019686;28;20482;-61
2023/09/22 05:31:10;;;;;;;;;;;;;;;16.65;77.33;96818.59;5026417;28;19937;-61
2023/09/22 05:33:41;;;;;;;;;;;;;;;16.64;76.96;96814.28;5026563;28;19932;-60
2023/09/22 05:36:08;;;;;;;;;;;;;;;16.57;76.83;96806.00;5026883;28;19925;-61
2023/09/22 05:38:38;;;;;;;;;;;;;;;16.54;77.32;96808.69;5026734;28;19947;-61
2023/09/22 05:41:06;;;;;;;;;;;;;;;16.54;77.94;96817.69;5025071;28;20379;-61
2023/09/22 05:43:33;;;;;;;;;;;;;;;16.53;77.71;96818.88;5026677;28;20394;-61
2023/09/22 05:46:01;;;;;;;;;;;;;;;16.52;77.62;96809.06;5027498;28;19936;-62
2023/09/22 05:48:30;;;;;;;;;;;;;;;16.55;77.11;96802.81;5028643;28;19931;-61
2023/09/22 05:50:59;;;;;;;;;;;;;;;16.58;77.19;96806.78;5027063;28;19929;-61
2023/09/22 05:53:30;;;;;;;;;;;;;;;16.59;77.50;96825.59;5014692;28;19925;-61
2023/09/22 05:56:08;;;;;;;;;;;;;;;16.61;77.42;96831.47;5021373;28;20000;-60
2023/09/22 05:58:36;;;;;;;;;;;;;;;16.59;76.89;96844.78;5028228;28;19933;-61
2023/09/22 06:01:06;;;;;;;;;;;;;;;16.58;76.80;96851.44;5027183;28;19925;-61
2023/09/22 06:03:34;;;;;;;;;;;;;;;16.56;77.04;96852.97;5027511;28;19925;-61
2023/09/22 06:06:05;;;;;;;;;;;;;;;16.53;76.03;96860.00;5028066;28;19929;-61
2023/09/22 06:08:32;;;;;;;;;;;;;;;16.52;76.39;96869.41;5007376;28;19990;-61
2023/09/22 06:11:01;;;;;;;;;;;;;;;16.53;76.49;96865.47;5013822;28;19968;-61
2023/09/22 06:13:30;;;;;;;;;;;;;;;16.47;76.53;96877.94;5026820;28;19978;-61
2023/09/22 06:15:58;;;;;;;;;;;;;;;16.45;76.44;96885.75;5020468;28;19925;-60
2023/09/22 06:18:25;;;;;;;;;;;;;;;16.44;77.16;96895.91;5024033;28;20447;-61
2023/09/22 06:20:54;;;;;;;;;;;;;;;16.42;76.97;96903.75;5006599;28;19929;-61
2023/09/22 06:23:21;;;;;;;;;;;;;;;16.45;77.15;96902.97;5010753;28;19930;-61
2023/09/22 06:25:49;;;;;;;;;;;;;;;16.48;77.31;96906.94;5022320;28;19952;-61
2023/09/22 06:28:18;;;;;;;;;;;;;;;16.52;77.13;96912.47;5022892;28;20413;-61
2023/09/22 06:30:48;;;;;;;;;;;;;;;16.53;77.09;96914.84;5021921;28;19933;-61
2023/09/22 06:33:16;;;;;;;;;;;;;;;16.55;77.49;96923.47;5019650;28;19940;-60
2023/09/22 06:35:44;;;;;;;;;;;;;;;16.55;77.09;96923.47;5015473;28;20299;-61
2023/09/22 06:38:12;;;;;;;;;;;;;;;16.58;76.92;96922.72;5011428;28;19929;-61
2023/09/22 06:40:41;;;;;;;;;;;;;;;16.56;77.38;96918.75;5010562;28;19932;-61
2023/09/22 06:43:09;;;;;;;;;;;;;;;16.59;77.29;96927.03;5019482;28;20024;-61
2023/09/22 06:45:51;;;;;;;;;;;;;;;16.59;77.71;96929.00;5026511;28;19925;-60
2023/09/22 06:48:22;;;;;;;;;;;;;;;16.52;77.45;96932.44;5013033;28;19926;-61
2023/09/22 06:50:51;;;;;;;;;;;;;;;16.47;77.12;96938.28;5019686;28;19925;-61
2023/09/22 06:53:19;;;;;;;;;;;;;;;16.47;77.27;96938.28;5020924;28;19935;-61
2023/09/22 06:55:48;;;;;;;;;;;;;;;16.50;77.15;96942.97;5023746;28;19929;-61
2023/09/22 06:58:15;;;;;;;;;;;;;;;16.52;77.14;96939.91;5022855;28;19929;-61
2023/09/22 07:00:43;;;;;;;;;;;;;;;16.50;77.66;96948.47;5021337;28;20056;-61
2023/09/22 07:03:12;;;;;;;;;;;;;;;16.51;77.65;96947.31;5011579;28;19956;-63
2023/09/22 07:05:40;;;;;;;;;;;;;;;16.49;77.28;96950.41;5016808;28;19931;-61
2023/09/22 07:08:08;;;;;;;;;;;;;;;16.47;76.79;96950.03;5029857;28;19932;-61
2023/09/22 07:10:36;;;;;;;;;;;;;;;16.53;77.16;96941.47;5028597;28;19930;-61
2023/09/22 07:13:04;;;;;;;;;;;;;;;16.52;77.34;96951.66;5029713;28;19947;-61
2023/09/22 07:15:32;;;;;;;;;;;;;;;16.50;77.57;96962.97;5023831;28;20302;-61
2023/09/22 07:18:01;;;;;;;;;;;;;;;16.50;77.62;96982.16;5021226;28;19933;-61
2023/09/22 07:20:30;;;;;;;;;;;;;;;16.48;77.15;96984.50;5019139;28;19929;-60
2023/09/22 07:22:57;;;;;;;;;;;;;;;16.48;77.17;96989.97;5026276;28;19979;-61
2023/09/22 07:25:26;;;;;;;;;;;;;;;16.49;77.34;97001.72;5020697;28;19930;-61
2023/09/22 07:27:54;;;;;;;;;;;;;;;16.54;77.53;97003.34;5024099;28;19988;-61
2023/09/22 07:30:22;;;;;;;;;;;;;;;16.55;77.12;96994.75;5023103;28;19925;-61
2023/09/22 07:32:51;;;;;;;;;;;;;;;16.52;77.02;96997.47;5026561;28;19929;-61
2023/09/22 07:35:19;;;;;;;;;;;;;;;16.51;77.26;96999.41;5030041;28;19929;-61
2023/09/22 07:37:48;;;;;;;;;;;;;;;16.55;77.23;96993.97;5028939;28;20404;-61
2023/09/22 07:40:16;;;;;;;;;;;;;;;16.57;77.41;96997.94;5030697;28;20010;-61
2023/09/22 07:42:44;;;;;;;;;;;;;;;16.62;77.72;96992.13;5029939;28;19925;-61
2023/09/22 07:45:12;;;;;;;;;;;;;;;16.64;77.88;96998.00;5030331;28;19925;-61
2023/09/22 07:47:40;;;;;;;;;;;;;;;16.59;76.61;97006.56;5026174;28;20547;-62
2023/09/22 07:50:11;;;;;;;;;;;;;;;16.59;77.02;97025.75;5011576;28;19945;-60
2023/09/22 07:52:41;;;;;;;;;;;;;;;16.61;77.41;97028.91;5016968;28;19932;-61
2023/09/22 07:55:14;;;;;;;;;;;;;;;16.56;76.85;97029.22;5020665;28;20382;-61
2023/09/22 07:57:46;;;;;;;;;;;;;;;16.56;76.75;97037.44;5011520;28;19934;-61
2023/09/22 08:00:15;;;;;;;;;;;;;;;16.49;76.29;97034.63;5022350;28;20552;-61
2023/09/22 08:02:43;;;;;;;;;;;;;;;16.53;76.55;97034.69;5012475;28;19926;-61
2023/09/22 08:05:15;;;;;;;;;;;;;;;16.52;76.57;97031.16;5012738;28;20582;-62
2023/09/22 08:07:43;;;;;;;;;;;;;;;16.48;77.13;97044.81;5020598;28;19979;-60
2023/09/22 08:10:13;;;;;;;;;;;;;;;16.50;76.59;97041.69;5011008;28;19925;-61
2023/09/22 08:12:41;;;;;;;;;;;;;;;16.53;76.75;97034.69;5010171;28;19926;-61
2023/09/22 08:15:09;;;;;;;;;;;;;;;16.55;76.69;97026.88;5017437;28;19936;-61
2023/09/22 08:17:37;;;;;;;;;;;;;;;16.57;76.75;97019.88;5016522;28;19933;-61
2023/09/22 08:20:11;;;;;;;;;;;;;;;16.59;77.10;97017.53;5022241;28;19929;-61
2023/09/22 08:22:40;;;;;;;;;;;;;;;16.58;76.99;97015.97;5028985;28;19967;-61
2023/09/22 08:25:09;;;;;;;;;;;;;;;16.56;76.69;97018.25;5027578;28;19929;-61
2023/09/22 08:27:38;;;;;;;;;;;;;;;16.61;77.04;97020.69;5025938;28;19932;-61
2023/09/22 08:30:10;;;;;;;;;;;;;;;16.60;77.02;97018.31;5024005;28;19935;-61
2023/09/22 08:32:39;;;;;;;;;;;;;;;16.63;76.77;97018.38;5025982;28;20678;-61
2023/09/22 08:35:08;;;;;;;;;;;;;;;16.60;76.24;97008.13;5020884;28;19925;-61
2023/09/22 08:37:40;;;;;;;;;;;;;;;16.60;76.21;97016.38;5025877;28;19933;-63
2023/09/22 08:40:09;;;;;;;;;;;;;;;16.64;76.79;97008.97;5024286;28;19985;-60
2023/09/22 08:42:38;;;;;;;;;;;;;;;16.65;76.90;97009.75;5026696;28;19925;-61
2023/09/22 08:45:07;;;;;;;;;;;;;;;16.70;76.78;97020.41;5024892;28;19979;-61
2023/09/22 08:47:39;;;;;;;;;;;;;;;16.70;76.88;97028.63;5021327;28;20023;-60
2023/09/22 08:50:09;;;;;;;;;;;;;;;16.70;76.60;97026.69;5022226;28;19928;-61
2023/09/22 08:52:38;;;;;;;;;;;;;;;16.74;76.81;97013.84;5023044;28;19925;-61
2023/09/22 08:55:08;;;;;;;;;;;;;;;16.77;76.93;97012.28;5024045;28;19942;-61
2023/09/22 08:57:35;;;;;;;;;;;;;;;16.74;77.02;97002.88;5005670;28;19929;-61
2023/09/22 09:00:11;;;;;;;;;;;;;;;16.75;76.66;96998.16;5017520;28;19928;-61
2023/09/22 09:02:39;;;;;;;;;;;;;;;16.68;76.98;96982.41;5022342;28;19929;-61
2023/09/22 09:05:18;;;;;;;;;;;;;;;16.82;77.26;96991.97;5021082;28;19951;-61
2023/09/22 09:07:46;;;;;;;;;;;;;;;16.79;77.06;96981.75;5026359;28;19929;-61
2023/09/22 09:10:24;;;;;;;;;;;;;;;16.85;76.86;97013.19;5019019;28;19925;-60
2023/09/22 09:12:52;;;;;;;;;;;;;;;16.85;76.86;97013.19;5021906;28;20417;-61
2023/09/22 09:15:24;;;;;;;;;;;;;;;16.82;77.33;97025.69;5014990;28;20041;-61
2023/09/22 09:18:04;;;;;;;;;;;;;;;16.79;77.44;97023.69;5026706;28;19933;-62
2023/09/22 09:20:32;;;;;;;;;;;;;;;16.81;77.00;97007.63;5025737;28;19929;-61
2023/09/22 09:23:10;;;;;;;;;;;;;;;16.82;76.83;97019.41;5025575;28;20382;-62
2023/09/22 09:25:40;;;;;;;;;;;;;;;16.82;76.59;97020.19;5027585;28;19968;-61
2023/09/22 09:28:08;;;;;;;;;;;;;;;16.82;76.55;97033.13;5024131;28;19933;-61
2023/09/22 09:30:37;;;;;;;;;;;;;;;16.81;76.29;97040.56;5026313;28;19929;-61
2023/09/22 09:33:10;;;;;;;;;;;;;;;16.80;76.13;97049.16;5029976;28;20393;-61
2023/09/22 09:35:39;;;;;;;;;;;;;;;16.75;75.95;97053.81;5025110;28;19929;-61
2023/09/22 09:38:17;;;;;;;;;;;;;;;16.76;75.51;97062.81;5022447;28;20019;-61
2023/09/22 09:40:45;;;;;;;;;;;;;;;16.74;75.50;97062.41;5025269;28;19967;-61
2023/09/22 09:43:13;;;;;;;;;;;;;;;16.73;75.54;97061.63;5025923;28;19929;-61
2023/09/22 09:45:46;;;;;;;;;;;;;;;16.73;75.11;97056.16;5029362;28;19980;-61
2023/09/22 09:48:17;;;;;;;;;;;;;;;16.69;75.03;97055.28;5027730;28;19925;-61
2023/09/22 09:50:46;;;;;;;;;;;;;;;16.68;75.66;97058.41;5027361;28;19960;-61
2023/09/22 09:53:15;;;;;;;;;;;;;;;16.70;75.37;97056.06;5025732;28;19925;-61
2023/09/22 09:55:43;;;;;;;;;;;;;;;16.72;75.75;97043.59;5027568;28;19968;-61
2023/09/22 09:58:11;;;;;;;;;;;;;;;16.73;76.52;97038.91;5029134;28;19932;-61
2023/09/22 10:00:39;;;;;;;;;;;;;;;16.74;76.14;97030.28;5020212;28;19936;-61
2023/09/22 10:03:09;;;;;;;;;;;;;;;16.77;75.42;97020.53;5027642;28;20310;-61
2023/09/22 10:05:37;;;;;;;;;;;;;;;16.77;75.60;97015.81;5028193;28;19925;-61
2023/09/22 10:08:06;;;;;;;;;;;;;;;16.75;75.30;97018.16;5028084;28;19925;-61
2023/09/22 10:10:35;;;;;;;;;;;;;;;16.80;76.16;97027.22;5010838;28;19929;-62
2023/09/22 10:13:03;;;;;;;;;;;;;;;16.79;76.45;97034.66;5026628;28;19929;-61
2023/09/22 10:15:49;;;;;;;;;;;;;;;16.79;76.62;97036.63;5027207;28;19936;-63
2023/09/22 10:18:18;;;;;;;;;;;;;;;16.84;76.84;97039.03;5020525;28;19932;-61
2023/09/22 10:20:47;;;;;;;;;;;;;;;16.82;77.08;97036.66;5027632;28;19955;-61
2023/09/22 10:23:18;;;;;;;;;;;;;;;16.81;77.53;97035.06;5027902;28;20022;-61
2023/09/22 10:26:01;;;;;;;;;;;;;;;16.83;77.42;97043.72;5023119;28;20313;-61
2023/09/22 10:28:29;;;;;;;;;;;;;;;16.83;77.33;97038.25;5009422;28;19975;-61
2023/09/22 10:31:04;;;;;;;;;;;;;;;16.85;76.94;97033.16;5027493;28;19949;-61
2023/09/22 10:33:36;;;;;;;;;;;;;;;16.88;76.67;97034.38;5028623;28;19932;-61
2023/09/22 10:36:04;;;;;;;;;;;;;;;16.90;76.38;97034.78;5025294;28;20303;-61
2023/09/22 10:38:47;;;;;;;;;;;;;;;16.94;76.76;97038.38;5023316;28;20007;-61
2023/09/22 10:41:15;;;;;;;;;;;;;;;16.94;76.79;97028.19;5019575;28;19925;-61
2023/09/22 10:43:56;;;;;;;;;;;;;;;16.93;76.29;97037.56;5030930;28;19925;-61
2023/09/22 10:46:24;;;;;;;;;;;;;;;16.94;75.94;97035.63;5027384;28;19929;-61
2023/09/22 10:48:53;;;;;;;;;;;;;;;16.95;75.39;97028.97;5031923;28;19929;-61
2023/09/22 10:51:22;;;;;;;;;;;;;;;16.96;75.07;97016.84;5031857;28;19986;-61
2023/09/22 10:54:00;;;;;;;;;;;;;;;16.99;74.74;97024.31;5028407;28;19979;-61
2023/09/22 10:56:28;;;;;;;;;;;;;;;17.01;75.06;97030.22;5028985;28;19925;-61
2023/09/22 10:58:57;;;;;;;;;;;;;;;17.02;75.16;97034.53;5030971;28;19940;-61
2023/09/22 11:01:25;;;;;;;;;;;;;;;17.01;75.33;97032.97;5027840;28;20374;-61
2023/09/22 11:03:54;;;;;;;;;;;;;;;17.00;74.98;97036.88;5027465;28;19951;-61
2023/09/22 11:06:22;;;;;;;;;;;;;;;16.97;74.70;97034.88;5035104;28;19925;-61
2023/09/22 11:08:51;;;;;;;;;;;;;;;16.98;74.71;97045.47;5025544;28;20381;-61
2023/09/22 11:11:19;;;;;;;;;;;;;;;17.01;74.28;97063.16;5030321;28;19986;-61
2023/09/22 11:13:53;;;;;;;;;;;;;;;17.01;74.62;97068.63;5029578;28;19925;-61
2023/09/22 11:16:21;;;;;;;;;;;;;;;17.01;73.96;97079.59;5030567;28;19932;-61
2023/09/22 11:18:50;;;;;;;;;;;;;;;16.98;73.25;97072.91;5011399;28;20013;-62
2023/09/22 11:21:20;;;;;;;;;;;;;;;16.99;73.83;97079.19;5032689;28;19975;-62
2023/09/22 11:23:49;;;;;;;;;;;;;;;16.95;73.32;97072.88;5028724;28;19932;-60
2023/09/22 11:26:17;;;;;;;;;;;;;;;16.87;72.82;97066.50;5032153;28;20003;-60
2023/09/22 11:28:45;;;;;;;;;;;;;;;16.87;72.46;97055.53;5027296;28;19971;-59
2023/09/22 11:31:14;;;;;;;;;;;;;;;16.89;73.39;97044.19;5030433;28;19928;-59
2023/09/22 11:33:43;;;;;;;;;;;;;;;16.90;73.13;97045.78;5030395;28;19991;-60
2023/09/22 11:36:11;;;;;;;;;;;;;;;16.85;73.11;97041.41;5029961;28;19929;-59
2023/09/22 11:38:40;;;;;;;;;;;;;;;16.88;72.78;97045.34;5029645;28;20027;-59
2023/09/22 11:41:09;;;;;;;;;;;;;;;16.89;73.41;97047.72;5028686;28;19925;-60
2023/09/22 11:43:38;;;;;;;;;;;;;;;16.88;72.34;97051.59;5031253;28;19929;-59
2023/09/22 11:46:09;;;;;;;;;;;;;;;16.92;71.87;97057.16;5026832;28;19925;-60
2023/09/22 11:48:56;;;;;;;;;;;;;;;16.95;72.49;97057.19;5030904;28;19925;-60
2023/09/22 11:51:41;;;;;;;;;;;;;;;16.96;73.19;97049.75;5026897;28;19925;-60
2023/09/22 11:54:11;;;;;;;;;;;;;;;16.96;72.10;97055.25;5027958;28;19932;-60
2023/09/22 11:56:38;;;;;;;;;;;;;;;16.98;72.54;97061.94;5028713;28;19931;-60
2023/09/22 11:59:07;;;;;;;;;;;;;;;17.00;72.25;97058.84;5028800;28;19925;-60
2023/09/22 12:01:34;;;;;;;;;;;;;;;16.98;71.78;97061.13;5029360;28;19925;-60
2023/09/22 12:04:04;;;;;;;;;;;;;;;17.02;71.47;97051.00;5031068;28;19932;-60
2023/09/22 12:06:32;;;;;;;;;;;;;;;17.03;71.49;97053.38;5028652;28;19932;-60
2023/09/22 12:09:00;;;;;;;;;;;;;;;17.06;72.06;97051.84;5025442;28;19929;-60
2023/09/22 12:11:30;;;;;;;;;;;;;;;17.07;71.76;97063.59;5030248;28;19933;-60
2023/09/22 12:14:00;;;;;;;;;;;;;;;17.07;70.61;97058.13;5026887;28;19959;-60
2023/09/22 12:16:28;;;;;;;;;;;;;;;17.08;71.83;97052.25;5027538;28;19925;-61
2023/09/22 12:18:56;;;;;;;;;;;;;;;17.08;71.79;97044.00;5028222;28;19940;-60
2023/09/22 12:21:24;;;;;;;;;;;;;;;17.08;71.16;97059.69;5028432;28;19929;-60
2023/09/22 12:23:52;;;;;;;;;;;;;;;17.09;70.71;97051.06;5028712;28;19929;-60
2023/09/22 12:26:20;;;;;;;;;;;;;;;17.17;70.79;97055.50;5021901;28;20449;-60
2023/09/22 12:28:49;;;;;;;;;;;;;;;17.17;70.19;97063.72;5030149;28;19978;-60
2023/09/22 12:31:18;;;;;;;;;;;;;;;17.19;69.67;97066.09;5019744;28;19971;-60
2023/09/22 12:33:46;;;;;;;;;;;;;;;17.19;70.17;97064.13;5029133;28;19933;-61
2023/09/22 12:36:14;;;;;;;;;;;;;;;17.20;69.37;97067.66;5011232;28;19925;-60
2023/09/22 12:38:42;;;;;;;;;;;;;;;17.23;69.40;97072.41;5030030;28;19925;-60
2023/09/22 12:41:11;;;;;;;;;;;;;;;17.21;69.55;97075.53;5025243;28;19979;-60
2023/09/22 12:43:38;;;;;;;;;;;;;;;17.25;69.96;97070.06;5024544;28;19925;-60
2023/09/22 12:46:12;;;;;;;;;;;;;;;17.25;69.58;97068.13;5025531;28;19965;-60
2023/09/22 12:48:40;;;;;;;;;;;;;;;17.26;70.16;97061.47;5028322;28;19929;-60
2023/09/22 12:51:10;;;;;;;;;;;;;;;17.26;70.33;97068.94;5022899;28;19968;-61
2023/09/22 12:53:38;;;;;;;;;;;;;;;17.27;69.77;97078.75;5025408;28;19979;-60
2023/09/22 12:56:06;;;;;;;;;;;;;;;17.27;70.27;97068.53;5025056;28;19986;-60
2023/09/22 12:58:34;;;;;;;;;;;;;;;17.28;70.38;97067.38;5029295;28;19983;-60